createdAt,value
2022-10-30T00:04:12.592Z,10.89
2022-10-30T00:09:15.731Z,10.91
2022-10-30T00:14:18.477Z,10.92
2022-10-30T00:19:21.222Z,10.93
2022-10-30T00:24:24.712Z,10.95
2022-10-30T00:29:46.416Z,10.94
2022-10-30T00:34:49.123Z,10.91
2022-10-30T00:39:51.835Z,10.89
2022-10-30T00:44:55.837Z,10.91
2022-10-30T00:50:34.707Z,10.84
2022-10-30T00:55:59.856Z,10.79
2022-10-30T01:01:07.544Z,10.78
2022-10-30T01:06:14.054Z,10.76
2022-10-30T01:11:16.805Z,10.75
2022-10-30T01:16:57.836Z,10.65
2022-10-30T01:22:29.509Z,10.54
2022-10-30T01:27:41.541Z,10.47
2022-10-30T01:33:21.035Z,10.40
2022-10-30T01:38:23.694Z,10.32
2022-10-30T01:43:26.436Z,10.28
2022-10-30T01:48:38.328Z,10.28
2022-10-30T01:53:55.752Z,10.26
2022-10-30T01:59:17.671Z,10.23
2022-10-30T02:04:20.863Z,10.20
2022-10-30T02:09:24.500Z,10.20
2022-10-30T02:14:31.379Z,10.18
2022-10-30T02:19:35.199Z,10.16
2022-10-30T02:24:55.669Z,10.13
2022-10-30T02:30:00.279Z,10.10
2022-10-30T02:35:03.831Z,10.08
2022-10-30T02:40:08.463Z,10.02
2022-10-30T02:45:11.798Z,9.97
2022-10-30T02:50:14.809Z,9.95
2022-10-30T02:55:18.016Z,9.93
2022-10-30T03:00:20.889Z,9.89
2022-10-30T03:05:41.536Z,9.79
2022-10-30T03:10:44.254Z,9.76
2022-10-30T03:15:47.181Z,9.74
2022-10-30T03:20:49.872Z,9.75
2022-10-30T03:26:10.646Z,9.75
2022-10-30T03:31:32.519Z,9.77
2022-10-30T03:36:35.370Z,9.77
2022-10-30T03:41:38.117Z,9.74
2022-10-30T03:46:40.821Z,9.70
2022-10-30T03:51:43.649Z,9.70
2022-10-30T03:56:46.735Z,9.69
2022-10-30T04:01:49.755Z,9.65
2022-10-30T04:06:52.868Z,9.61
2022-10-30T04:11:55.630Z,9.60
2022-10-30T04:16:58.376Z,9.56
2022-10-30T04:22:01.140Z,9.51
2022-10-30T04:27:03.862Z,9.50
2022-10-30T04:32:06.642Z,9.50
2022-10-30T04:37:27.393Z,9.50
2022-10-30T04:42:30.105Z,9.51
2022-10-30T04:52:41.075Z,9.48
2022-10-30T04:57:43.722Z,9.44
2022-10-30T05:02:46.706Z,9.42
2022-10-30T05:07:49.418Z,9.41
2022-10-30T05:12:54.164Z,9.40
2022-10-30T05:17:57.245Z,9.38
2022-10-30T05:23:00.507Z,9.34
2022-10-30T05:28:06.463Z,9.33
2022-10-30T05:33:12.003Z,9.35
2022-10-30T05:38:14.751Z,9.36
2022-10-30T05:43:34.950Z,9.37
2022-10-30T05:48:37.678Z,9.35
2022-10-30T05:53:40.392Z,9.29
2022-10-30T05:58:43.070Z,9.30
2022-10-30T06:03:45.918Z,9.38
2022-10-30T06:09:06.331Z,9.43
2022-10-30T06:14:27.028Z,9.55
2022-10-30T06:19:29.722Z,9.69
2022-10-30T06:24:32.460Z,9.84
2022-10-30T06:29:54.928Z,10.00
2022-10-30T06:34:57.644Z,10.18
2022-10-30T06:40:18.264Z,10.32
2022-10-30T06:45:23.303Z,10.45
2022-10-30T06:50:27.565Z,10.58
2022-10-30T06:55:30.409Z,10.69
2022-10-30T07:00:50.886Z,10.76
2022-10-30T07:05:53.585Z,10.82
2022-10-30T07:10:58.359Z,10.89
2022-10-30T07:16:01.278Z,10.98
2022-10-30T07:21:04.173Z,11.08
2022-10-30T07:26:07.851Z,11.21
2022-10-30T07:31:10.726Z,11.33
2022-10-30T07:36:15.512Z,11.45
2022-10-30T07:41:19.535Z,11.59
2022-10-30T07:46:22.337Z,11.89
2022-10-30T07:51:25.386Z,12.53
2022-10-30T07:56:28.069Z,13.14
2022-10-30T08:01:30.845Z,13.81
2022-10-30T08:06:33.665Z,14.03
2022-10-30T08:11:36.378Z,14.12
2022-10-30T08:16:39.153Z,14.15
2022-10-30T08:22:00.297Z,14.05
2022-10-30T08:27:04.571Z,14.22
2022-10-30T08:32:07.582Z,14.49
2022-10-30T08:37:10.710Z,14.63
2022-10-30T08:42:13.823Z,14.90
2022-10-30T08:47:34.249Z,14.75
2022-10-30T08:52:37.392Z,14.35
2022-10-30T08:57:40.298Z,14.08
2022-10-30T09:02:43.513Z,13.87
2022-10-30T09:07:47.169Z,13.79
2022-10-30T09:13:07.698Z,13.84
2022-10-30T09:18:10.940Z,13.93
2022-10-30T09:23:14.057Z,14.00
2022-10-30T09:28:17.430Z,14.04
2022-10-30T09:33:20.194Z,14.15
2022-10-30T09:38:23.419Z,14.22
2022-10-30T09:43:54.154Z,14.18
2022-10-30T09:49:48.999Z,14.10
2022-10-30T09:55:15.583Z,14.13
2022-10-30T10:00:43.688Z,14.15
2022-10-30T10:05:53.003Z,14.17
2022-10-30T10:11:01.239Z,14.19
2022-10-30T10:16:25.287Z,14.25
2022-10-30T10:21:30.107Z,14.32
2022-10-30T10:26:54.002Z,14.26
2022-10-30T10:32:08.367Z,14.20
2022-10-30T10:37:35.008Z,14.19
2022-10-30T10:43:28.732Z,14.19
2022-10-30T10:48:44.427Z,14.17
2022-10-30T10:53:55.285Z,14.13
2022-10-30T10:59:03.591Z,14.18
2022-10-30T11:04:29.329Z,14.36
2022-10-30T11:09:32.165Z,14.51
2022-10-30T11:14:35.629Z,14.51
2022-10-30T11:19:40.493Z,14.51
2022-10-30T11:25:26.818Z,14.48
2022-10-30T11:30:50.711Z,14.49
2022-10-30T11:36:15.846Z,14.51
2022-10-30T11:41:38.151Z,14.59
2022-10-30T11:46:41.790Z,14.71
2022-10-30T11:51:47.957Z,14.86
2022-10-30T11:56:52.285Z,14.95
2022-10-30T12:02:27.124Z,14.90
2022-10-30T12:07:32.559Z,14.81
2022-10-30T12:12:53.141Z,14.75
2022-10-30T12:18:25.596Z,14.76
2022-10-30T12:23:54.885Z,14.85
2022-10-30T12:29:19.794Z,15.05
2022-10-30T12:34:35.412Z,15.35
2022-10-30T12:40:14.056Z,15.60
2022-10-30T12:45:18.408Z,15.74
2022-10-30T12:50:31.596Z,15.78
2022-10-30T12:55:44.039Z,15.76
2022-10-30T13:01:06.688Z,15.76
2022-10-30T13:06:12.572Z,15.71
2022-10-30T13:11:43.419Z,15.49
2022-10-30T13:16:46.249Z,15.30
2022-10-30T13:22:56.606Z,15.18
2022-10-30T13:28:15.383Z,15.02
2022-10-30T13:33:45.469Z,14.89
2022-10-30T13:39:03.806Z,14.75
2022-10-30T13:44:15.701Z,14.67
2022-10-30T13:49:47.338Z,14.59
2022-10-30T13:55:05.205Z,14.50
2022-10-30T14:00:20.437Z,14.44
2022-10-30T14:06:02.603Z,14.28
2022-10-30T14:11:07.519Z,14.12
2022-10-30T14:16:34.980Z,13.98
2022-10-30T14:22:00.102Z,13.83
2022-10-30T14:27:11.373Z,13.67
2022-10-30T14:32:14.046Z,13.56
2022-10-30T14:37:22.959Z,13.46
2022-10-30T14:42:32.408Z,13.36
2022-10-30T14:47:43.623Z,13.28
2022-10-30T14:52:49.064Z,13.21
2022-10-30T14:57:53.705Z,13.16
2022-10-30T15:03:22.571Z,13.06
2022-10-30T15:08:49.108Z,12.95
2022-10-30T15:14:40.597Z,12.84
2022-10-30T15:19:52.065Z,12.74
2022-10-30T15:24:55.340Z,12.67
2022-10-30T15:30:04.902Z,12.60
2022-10-30T15:35:27.887Z,12.55
2022-10-30T15:40:32.910Z,12.51
2022-10-30T15:45:38.695Z,12.48
2022-10-30T15:50:45.081Z,12.44
2022-10-30T15:55:50.176Z,12.40
2022-10-30T16:00:59.298Z,12.39
2022-10-30T16:06:18.045Z,12.35
2022-10-30T16:11:23.005Z,12.28
2022-10-30T16:16:31.636Z,12.23
2022-10-30T16:21:35.277Z,12.20
2022-10-30T16:26:39.059Z,12.15
2022-10-30T16:32:01.419Z,12.11
2022-10-30T16:37:05.997Z,12.09
2022-10-30T16:42:19.881Z,12.07
2022-10-30T16:47:26.074Z,12.04
2022-10-30T16:52:38.063Z,11.99
2022-10-30T16:57:47.067Z,11.96
2022-10-30T17:02:52.735Z,11.92
2022-10-30T17:08:00.311Z,11.88
2022-10-30T17:13:28.592Z,11.84
2022-10-30T17:18:33.201Z,11.80
2022-10-30T17:23:36.040Z,11.80
2022-10-30T17:28:40.001Z,11.77
2022-10-30T17:34:15.831Z,11.70
2022-10-30T17:39:19.183Z,11.65
2022-10-30T17:44:24.195Z,11.63
2022-10-30T17:49:29.708Z,11.62
2022-10-30T17:54:50.153Z,11.58
2022-10-30T17:59:53.083Z,11.54
2022-10-30T18:04:56.930Z,11.52
2022-10-30T18:10:17.558Z,11.49
2022-10-30T18:15:28.866Z,11.43
2022-10-30T18:20:49.577Z,11.39
2022-10-30T18:25:52.951Z,11.38
2022-10-30T18:30:57.280Z,11.36
2022-10-30T18:36:21.258Z,11.35
2022-10-30T18:41:38.308Z,11.32
2022-10-30T18:47:02.741Z,11.26
2022-10-30T18:52:06.108Z,11.17
2022-10-30T18:57:10.190Z,11.05
2022-10-30T19:02:23.241Z,10.93
2022-10-30T19:07:26.163Z,10.81
2022-10-30T19:12:29.064Z,10.68
2022-10-30T19:17:31.923Z,10.58
2022-10-30T19:22:34.911Z,10.48
2022-10-30T19:27:37.627Z,10.40
2022-10-30T19:32:40.697Z,10.33
2022-10-30T19:37:43.835Z,10.24
2022-10-30T19:42:46.568Z,10.19
2022-10-30T19:48:17.655Z,10.15
2022-10-30T19:53:41.415Z,10.07
2022-10-30T19:58:44.240Z,10.00
2022-10-30T20:03:46.972Z,9.98
2022-10-30T20:08:52.242Z,9.95
2022-10-30T20:13:55.037Z,9.89
2022-10-30T20:18:57.803Z,9.84
2022-10-30T20:24:00.983Z,9.79
2022-10-30T20:29:03.742Z,9.74
2022-10-30T20:34:24.388Z,9.69
2022-10-30T20:39:44.806Z,9.67
2022-10-30T20:44:49.152Z,9.65
2022-10-30T20:49:51.984Z,9.58
2022-10-30T20:54:54.829Z,9.48
2022-10-30T20:59:57.749Z,9.41
2022-10-30T21:05:11.840Z,9.38
2022-10-30T21:10:38.527Z,9.34
2022-10-30T21:15:46.738Z,9.30
2022-10-30T21:20:49.469Z,9.26
2022-10-30T21:25:59.738Z,9.23
2022-10-30T21:31:20.485Z,9.19
2022-10-30T21:36:23.863Z,9.14
2022-10-30T21:41:27.004Z,9.14
2022-10-30T21:46:31.362Z,9.14
2022-10-30T21:51:51.773Z,9.11
2022-10-30T21:57:12.386Z,9.08
2022-10-30T22:02:15.546Z,9.06
2022-10-30T22:07:36.169Z,8.99
2022-10-30T22:12:38.839Z,8.93
2022-10-30T22:18:00.939Z,8.89
2022-10-30T22:23:21.530Z,8.84
2022-10-30T22:28:24.311Z,8.76
2022-10-30T22:33:29.371Z,8.72
2022-10-30T22:38:32.245Z,8.66
2022-10-30T22:43:35.016Z,8.64
2022-10-30T22:48:38.575Z,8.61
2022-10-30T22:54:01.595Z,8.55
2022-10-30T22:59:11.073Z,8.50
2022-10-30T23:04:17.117Z,8.43
2022-10-30T23:09:23.257Z,8.35
2022-10-30T23:14:26.254Z,8.27
2022-10-30T23:19:29.547Z,8.21
2022-10-30T23:24:33.631Z,8.16
2022-10-30T23:29:36.311Z,8.08
2022-10-30T23:34:38.983Z,8.01
2022-10-30T23:39:41.630Z,7.98
2022-10-30T23:44:44.999Z,7.97
2022-10-30T23:49:47.671Z,7.94
2022-10-30T23:54:50.447Z,7.87
2022-10-30T23:59:53.098Z,7.79
